KAUS - Austin/Bergstrom Int, TX, US

Issued at 1739 UTC 18 Oct 2019
Updated at 2327 UTC 18 Oct 2019
Potential Impact None Slight Moderate High
Time2253Z 19/00Z 19/01Z 19/02Z 19/03Z 19/04Z 19/05Z 19/06Z 19/07Z 19/08Z 19/09Z 19/10Z 19/11Z 19/12Z>>
Type OBS PRVL PRVL PRVL PRVL PRVL PRVL PRVL PRVL PRVL PRVL PRVL PRVL PRVL
VIS 10 >6 >6 >6 >6 >6 >6 >6 >6 >6 >6 6 6 6
CIG -- -- -- -- -- -- -- -- -- -- -- 15 15 15
Cover CLR FEW FEW FEW FEW FEW FEW FEW FEW FEW FEW BKN BKN BKN
FltCat VFR VFR VFR VFR VFR VFR VFR VFR VFR VFR VFR MVFR MVFR MVFR
WX -- -- -- -- -- -- -- -- -- -- -- BR BR BR
WDir 170 160 160 160 160 160 160 160 160 160 160 VRB VRB VRB
WSpd 7 6 6 6 6 6 6 6 6 6 6 4 4 4
WGst -- -- -- -- -- -- -- -- -- -- -- -- -- --
Raw TAF
KAUS 181739Z 1818/1924 16006KT P6SM FEW250
  FM191000 VRB04KT 6SM BR SCT009 BKN015
  FM191700 23009KT P6SM FEW150
  FM192300 34005KT P6SM FEW250


Raw METAR
KAUS 182253Z 17007KT 10SM CLR 28/13 A2971 RMK AO2 SLP056 T02830128 $
KAUS 182153Z 17007KT 10SM CLR 29/13 A2972 RMK AO2 SLP057 T02890128 $
KAUS 182053Z 13010KT 10SM CLR 29/11 A2973 RMK AO2 SLP062 T02890111 56034 $

METAR Board
Radar Display
Forecast Discussion
For situational awareness. Not to be used for flight planning purposes.